createdAt,value
2019-05-01T00:01:31.612Z,80.20
2019-05-01T00:04:01.683Z,80.20
2019-05-01T00:06:40.430Z,80.40
2019-05-01T00:09:10.570Z,80.50
2019-05-01T00:11:39.278Z,80.50
2019-05-01T00:14:09.117Z,80.60
2019-05-01T00:16:37.787Z,80.80
2019-05-01T00:19:06.266Z,81.40
2019-05-01T00:21:34.757Z,81.60
2019-05-01T00:24:03.177Z,81.80
2019-05-01T00:26:31.578Z,81.60
2019-05-01T00:28:59.989Z,81.50
2019-05-01T00:31:28.395Z,81.80
2019-05-01T00:33:56.832Z,82.00
2019-05-01T00:36:25.263Z,82.00
2019-05-01T00:38:53.654Z,81.60
2019-05-01T00:41:22.087Z,81.50
2019-05-01T00:43:50.682Z,81.30
2019-05-01T00:46:19.090Z,82.00
2019-05-01T00:48:47.479Z,82.80
2019-05-01T00:51:15.967Z,82.70
2019-05-01T00:53:44.374Z,82.60
2019-05-01T00:56:14.418Z,82.00
2019-05-01T00:58:44.470Z,81.90
2019-05-01T01:01:14.527Z,81.50
2019-05-01T01:03:42.954Z,82.30
2019-05-01T01:06:11.460Z,82.40
2019-05-01T01:08:39.886Z,82.60
2019-05-01T01:11:08.361Z,82.80
2019-05-01T01:13:36.766Z,83.00
2019-05-01T01:16:05.363Z,83.30
2019-05-01T01:18:33.765Z,83.00
2019-05-01T01:21:02.178Z,82.80
2019-05-01T01:23:30.570Z,82.00
2019-05-01T01:25:59.035Z,82.50
2019-05-01T01:28:27.458Z,82.60
2019-05-01T01:30:56.861Z,82.60
2019-05-01T01:33:25.583Z,82.50
2019-05-01T01:35:53.997Z,82.60
2019-05-01T01:38:22.622Z,83.10
2019-05-01T01:40:56.974Z,82.90
2019-05-01T01:43:27.078Z,82.30
2019-05-01T01:45:57.494Z,81.90
2019-05-01T01:48:25.986Z,81.70
2019-05-01T01:50:54.846Z,81.40
2019-05-01T01:53:24.022Z,81.20
2019-05-01T01:55:53.126Z,81.40
2019-05-01T01:58:22.930Z,81.50
2019-05-01T02:00:53.426Z,81.90
2019-05-01T02:03:23.482Z,81.80
2019-05-01T02:05:52.258Z,81.60
2019-05-01T02:08:20.663Z,81.00
2019-05-01T02:10:49.531Z,81.10
2019-05-01T02:13:18.082Z,81.00
2019-05-01T02:15:46.506Z,81.00
2019-05-01T02:18:15.074Z,80.70
2019-05-01T02:20:43.755Z,80.60
2019-05-01T02:23:12.182Z,80.60
2019-05-01T02:25:42.469Z,80.60
2019-05-01T02:28:12.510Z,81.30
2019-05-01T02:30:42.831Z,80.80
2019-05-01T02:33:12.195Z,80.60
2019-05-01T02:35:42.341Z,80.50
2019-05-01T02:38:12.589Z,80.90
2019-05-01T02:40:44.056Z,80.80
2019-05-01T02:43:15.911Z,81.20
2019-05-01T02:45:47.911Z,81.70
2019-05-01T02:48:19.526Z,80.80
2019-05-01T02:50:51.053Z,80.70
2019-05-01T02:53:21.114Z,80.90
2019-05-01T02:55:52.134Z,81.20
2019-05-01T02:58:20.785Z,81.20
2019-05-01T03:00:49.225Z,81.50
2019-05-01T03:03:17.740Z,81.70
2019-05-01T03:05:46.278Z,82.00
2019-05-01T03:08:14.709Z,82.00
2019-05-01T03:10:43.158Z,82.10
2019-05-01T03:13:11.686Z,81.80
2019-05-01T03:15:40.195Z,82.00
2019-05-01T03:18:10.239Z,81.60
2019-05-01T03:20:40.939Z,81.50
2019-05-01T03:23:11.761Z,81.20
2019-05-01T03:25:40.986Z,80.80
2019-05-01T03:28:09.557Z,80.80
2019-05-01T03:30:38.081Z,81.40
2019-05-01T03:33:06.669Z,81.30
2019-05-01T03:35:36.683Z,80.60
2019-05-01T03:38:05.623Z,79.90
2019-05-01T03:40:34.380Z,79.70
2019-05-01T03:43:02.947Z,79.50
2019-05-01T03:45:34.197Z,79.00
2019-05-01T03:48:01.740Z,78.90
2019-05-01T03:50:30.271Z,78.70
2019-05-01T03:52:58.876Z,79.10
2019-05-01T03:55:27.476Z,79.10
2019-05-01T03:57:57.212Z,80.00
2019-05-01T04:00:27.265Z,80.30
2019-05-01T04:02:57.474Z,79.90
2019-05-01T04:05:26.226Z,80.00
2019-05-01T04:07:54.702Z,80.20
2019-05-01T04:10:23.099Z,80.20
2019-05-01T04:12:51.643Z,80.30
2019-05-01T04:15:20.038Z,79.70
2019-05-01T04:17:50.455Z,79.40
2019-05-01T04:20:18.866Z,79.20
2019-05-01T04:22:47.936Z,79.50
2019-05-01T04:25:16.599Z,79.20
2019-05-01T04:27:46.931Z,79.00
2019-05-01T04:30:18.297Z,79.40
2019-05-01T04:32:52.571Z,80.40
2019-05-01T04:35:21.507Z,81.30
2019-05-01T04:37:50.533Z,81.00
2019-05-01T04:40:20.615Z,81.10
2019-05-01T04:42:49.096Z,80.40
2019-05-01T04:45:17.939Z,80.30
2019-05-01T04:47:46.518Z,80.10
2019-05-01T04:50:15.417Z,79.90
2019-05-01T04:52:43.855Z,80.00
2019-05-01T04:55:12.419Z,80.40
2019-05-01T04:57:41.667Z,80.50
2019-05-01T05:00:10.438Z,80.90
2019-05-01T05:02:40.762Z,81.60
2019-05-01T05:05:09.783Z,81.30
2019-05-01T05:07:38.278Z,81.70
2019-05-01T05:10:07.118Z,81.30
2019-05-01T05:12:37.430Z,81.50
2019-05-01T05:15:09.328Z,81.60
2019-05-01T05:17:37.760Z,81.90
2019-05-01T05:20:07.222Z,81.80
2019-05-01T05:22:35.700Z,81.90
2019-05-01T05:25:05.269Z,81.90
2019-05-01T05:27:34.246Z,81.80
2019-05-01T05:30:03.150Z,81.70
2019-05-01T05:32:33.974Z,81.60
2019-05-01T05:35:04.502Z,82.00
2019-05-01T05:37:36.491Z,82.20
2019-05-01T05:40:06.042Z,81.60
2019-05-01T05:42:34.519Z,81.50
2019-05-01T05:45:03.995Z,81.20
2019-05-01T05:47:32.758Z,81.40
2019-05-01T05:50:01.304Z,81.50
2019-05-01T05:52:32.996Z,81.10
2019-05-01T05:55:04.988Z,80.90
2019-05-01T05:57:36.587Z,81.40
2019-05-01T06:00:08.972Z,80.80
2019-05-01T06:02:41.122Z,80.50
2019-05-01T06:05:11.461Z,80.60
2019-05-01T06:07:44.698Z,80.60
2019-05-01T06:10:18.602Z,80.80
2019-05-01T06:12:48.628Z,80.80
2019-05-01T06:15:18.743Z,80.60
2019-05-01T06:17:48.786Z,79.90
2019-05-01T06:20:20.779Z,80.60
2019-05-01T06:22:50.936Z,81.30
2019-05-01T06:25:22.354Z,80.50
2019-05-01T06:27:51.395Z,80.40
2019-05-01T06:30:20.079Z,80.50
2019-05-01T06:32:48.519Z,80.60
2019-05-01T06:35:17.077Z,80.70
2019-05-01T06:37:48.593Z,80.90
2019-05-01T06:40:22.178Z,80.70
2019-05-01T06:42:50.102Z,79.80
2019-05-01T06:45:20.356Z,80.00
2019-05-01T06:47:52.394Z,79.90
2019-05-01T06:50:22.211Z,79.60
2019-05-01T06:52:51.355Z,79.60
2019-05-01T06:55:22.448Z,79.00
2019-05-01T06:57:50.797Z,78.90
2019-05-01T07:00:19.492Z,78.60
2019-05-01T07:02:50.153Z,78.60
2019-05-01T07:05:20.098Z,78.80
2019-05-01T07:07:53.258Z,78.90
2019-05-01T07:10:29.712Z,79.00
2019-05-01T07:12:49.646Z,79.00
2019-05-01T07:15:21.971Z,79.20
2019-05-01T07:17:52.047Z,79.00
2019-05-01T07:20:22.214Z,79.30
2019-05-01T07:22:50.951Z,78.40
2019-05-01T07:25:19.543Z,78.60
2019-05-01T07:27:48.119Z,78.30
2019-05-01T07:30:19.716Z,78.10
2019-05-01T07:32:48.941Z,78.60
2019-05-01T07:35:17.495Z,78.20
2019-05-01T07:37:46.143Z,78.40
2019-05-01T07:40:16.014Z,78.70
2019-05-01T07:42:48.230Z,78.90
2019-05-01T07:45:18.790Z,78.30
2019-05-01T07:47:49.223Z,78.60
2019-05-01T07:50:18.670Z,78.40
2019-05-01T07:52:51.766Z,77.90
2019-05-01T07:55:20.179Z,77.60
2019-05-01T07:57:49.175Z,77.00
2019-05-01T08:00:19.594Z,78.50
2019-05-01T08:02:47.994Z,77.60
2019-05-01T08:05:16.426Z,77.30
2019-05-01T08:07:44.904Z,77.00
2019-05-01T08:10:13.576Z,76.50
2019-05-01T08:12:44.860Z,76.50
2019-05-01T08:15:12.262Z,76.60
2019-05-01T08:17:42.338Z,76.80
2019-05-01T08:20:14.894Z,77.30
2019-05-01T08:22:42.755Z,77.30
2019-05-01T08:25:11.469Z,76.90
2019-05-01T08:27:41.543Z,75.80
2019-05-01T08:30:12.810Z,76.20
2019-05-01T08:32:44.109Z,76.80
2019-05-01T08:35:14.239Z,76.80
2019-05-01T08:37:42.650Z,76.90
2019-05-01T08:40:11.318Z,76.80
2019-05-01T08:42:42.693Z,76.40
2019-05-01T08:45:11.629Z,75.50
2019-05-01T08:47:41.698Z,75.90
2019-05-01T08:53:07.942Z,75.80
2019-05-01T08:55:39.963Z,75.90
2019-05-01T08:58:08.875Z,75.40
2019-05-01T09:00:41.070Z,74.50
2019-05-01T09:03:08.424Z,74.70
2019-05-01T09:05:37.314Z,75.00
2019-05-01T09:08:05.716Z,74.60
2019-05-01T09:10:34.141Z,73.70
2019-05-01T09:13:02.530Z,73.80
2019-05-01T09:15:31.117Z,73.20
2019-05-01T09:17:59.510Z,72.90
2019-05-01T09:20:28.438Z,73.10
2019-05-01T09:22:56.949Z,73.00
2019-05-01T09:25:30.869Z,73.00
2019-05-01T09:27:59.610Z,72.80
2019-05-01T09:30:30.566Z,72.50
2019-05-01T09:32:59.066Z,72.80
2019-05-01T09:35:27.502Z,72.30
2019-05-01T09:40:37.478Z,72.50
2019-05-01T09:43:05.950Z,73.20
2019-05-01T09:45:34.404Z,73.40
2019-05-01T09:48:03.174Z,74.40
2019-05-01T09:50:33.230Z,73.80
2019-05-01T09:53:03.353Z,73.50
2019-05-01T09:55:33.415Z,73.40
2019-05-01T09:58:02.936Z,72.80
2019-05-01T10:00:32.674Z,73.00
2019-05-01T10:03:01.139Z,73.10
2019-05-01T10:05:29.551Z,73.00
2019-05-01T10:08:00.064Z,73.10
2019-05-01T10:10:29.281Z,73.50
2019-05-01T10:12:58.555Z,73.10
2019-05-01T10:15:26.993Z,72.50
2019-05-01T10:17:55.409Z,72.60
2019-05-01T10:20:23.807Z,72.60
2019-05-01T10:22:52.217Z,72.80
2019-05-01T10:25:20.662Z,72.80
2019-05-01T10:27:52.931Z,73.90
2019-05-01T10:30:22.722Z,74.10
2019-05-01T10:32:57.275Z,73.20
2019-05-01T10:35:24.572Z,73.60
2019-05-01T10:37:53.008Z,73.90
2019-05-01T10:40:22.394Z,73.90
2019-05-01T10:45:33.313Z,73.10
2019-05-01T10:48:01.713Z,72.70
2019-05-01T10:50:30.135Z,72.80
2019-05-01T10:52:58.619Z,72.30
2019-05-01T10:55:27.050Z,71.40
2019-05-01T10:57:55.537Z,70.60
2019-05-01T11:00:24.096Z,71.30
2019-05-01T11:02:52.538Z,72.00
2019-05-01T11:05:20.938Z,71.70
2019-05-01T11:07:49.346Z,71.20
2019-05-01T11:10:17.902Z,71.10
2019-05-01T11:12:46.358Z,70.40
2019-05-01T11:15:16.107Z,69.40
2019-05-01T11:17:44.533Z,69.10
2019-05-01T11:20:13.322Z,69.80
2019-05-01T11:22:41.726Z,69.50
2019-05-01T11:25:11.061Z,68.80
2019-05-01T11:27:39.511Z,69.20
2019-05-01T11:30:08.394Z,68.30
2019-05-01T11:32:38.446Z,68.60
2019-05-01T11:35:09.266Z,69.40
2019-05-01T11:37:39.338Z,68.80
2019-05-01T11:40:10.010Z,67.70
2019-05-01T11:42:38.418Z,67.10
2019-05-01T11:45:09.226Z,67.30
2019-05-01T11:47:37.661Z,66.60
2019-05-01T11:50:06.938Z,66.20
2019-05-01T11:52:35.407Z,65.80
2019-05-01T11:55:04.569Z,64.40
2019-05-01T11:57:33.074Z,64.90
2019-05-01T12:00:01.477Z,64.00
2019-05-01T12:02:29.883Z,62.90
2019-05-01T12:04:58.335Z,64.30
2019-05-01T12:07:26.754Z,63.80
2019-05-01T12:09:55.186Z,63.60
2019-05-01T12:12:25.228Z,62.80
2019-05-01T12:14:53.681Z,63.00
2019-05-01T12:17:23.722Z,63.00
2019-05-01T12:19:52.150Z,61.80
2019-05-01T12:22:20.574Z,62.90
2019-05-01T12:24:48.998Z,62.40
2019-05-01T12:27:17.415Z,62.80
2019-05-01T12:29:45.831Z,62.70
2019-05-01T12:32:14.324Z,62.90
2019-05-01T12:34:42.799Z,62.50
2019-05-01T12:37:17.399Z,63.90
2019-05-01T12:39:46.182Z,63.50
2019-05-01T12:42:16.251Z,63.20
2019-05-01T12:44:44.906Z,62.50
2019-05-01T12:47:15.949Z,62.80
2019-05-01T12:49:45.995Z,62.70
2019-05-01T12:52:18.812Z,63.70
2019-05-01T12:54:51.743Z,63.20
2019-05-01T12:57:19.726Z,62.60
2019-05-01T12:59:48.136Z,63.30
2019-05-01T13:02:16.575Z,63.00
2019-05-01T13:04:45.867Z,61.80
2019-05-01T13:07:14.366Z,62.50
2019-05-01T13:09:42.760Z,62.60
2019-05-01T13:12:11.170Z,61.70
2019-05-01T13:14:39.582Z,61.30
2019-05-01T13:17:08.679Z,61.10
2019-05-01T13:19:37.098Z,61.10
2019-05-01T13:22:07.243Z,60.60
2019-05-01T13:24:37.351Z,60.00
2019-05-01T13:27:07.406Z,60.00
2019-05-01T13:29:37.491Z,59.60
2019-05-01T13:32:07.543Z,58.80
2019-05-01T13:34:36.059Z,59.50
2019-05-01T13:37:06.169Z,59.70
2019-05-01T13:39:34.570Z,60.30
2019-05-01T13:42:03.080Z,60.60
2019-05-01T13:44:31.470Z,60.80
2019-05-01T13:46:59.918Z,60.90
2019-05-01T13:49:28.334Z,61.30
2019-05-01T13:51:56.748Z,61.60
2019-05-01T13:54:25.203Z,61.50
2019-05-01T13:56:53.638Z,61.90
2019-05-01T13:59:22.064Z,61.70
2019-05-01T14:01:50.455Z,61.40
2019-05-01T14:04:21.642Z,62.30
2019-05-01T14:06:50.230Z,61.20
2019-05-01T14:09:20.386Z,61.30
2019-05-01T14:11:48.821Z,61.20
2019-05-01T14:14:17.242Z,60.70
2019-05-01T14:16:45.639Z,60.80
2019-05-01T14:19:14.052Z,62.60
2019-05-01T14:21:44.086Z,62.40
2019-05-01T14:24:14.142Z,62.50
2019-05-01T14:26:42.539Z,62.90
2019-05-01T14:29:10.961Z,62.80
2019-05-01T14:31:39.383Z,63.30
2019-05-01T14:34:07.806Z,63.20
2019-05-01T14:36:36.261Z,63.90
2019-05-01T14:39:06.973Z,63.20
2019-05-01T14:41:35.375Z,63.40
2019-05-01T14:44:04.733Z,62.40
2019-05-01T14:46:33.157Z,62.00
2019-05-01T14:49:01.754Z,62.60
2019-05-01T14:51:30.151Z,62.10
2019-05-01T14:53:58.559Z,62.60
2019-05-01T14:56:26.968Z,62.20
2019-05-01T14:58:55.391Z,61.90
2019-05-01T15:01:24.166Z,62.10
2019-05-01T15:03:52.619Z,62.00
2019-05-01T15:06:21.029Z,61.70
2019-05-01T15:08:51.890Z,61.80
2019-05-01T15:11:20.290Z,60.90
2019-05-01T15:13:50.363Z,62.30
2019-05-01T15:16:20.432Z,62.90
2019-05-01T15:18:50.540Z,64.00
2019-05-01T15:21:18.933Z,65.40
2019-05-01T15:23:53.565Z,65.70
2019-05-01T15:26:17.475Z,66.00
2019-05-01T15:28:46.292Z,65.30
2019-05-01T15:31:14.731Z,66.00
2019-05-01T15:33:43.131Z,66.30
2019-05-01T15:36:11.557Z,66.60
2019-05-01T15:38:39.991Z,67.50
2019-05-01T15:41:10.056Z,67.30
2019-05-01T15:43:40.151Z,67.70
2019-05-01T15:46:08.589Z,68.10
2019-05-01T15:48:37.020Z,68.30
2019-05-01T15:51:05.442Z,69.00
2019-05-01T15:53:33.860Z,68.90
2019-05-01T15:56:02.286Z,68.60
2019-05-01T15:58:30.717Z,67.90
2019-05-01T16:00:59.141Z,68.30
2019-05-01T16:03:27.552Z,67.90
2019-05-01T16:05:55.974Z,67.40
2019-05-01T16:08:24.380Z,67.50
2019-05-01T16:10:54.429Z,67.20
2019-05-01T16:13:22.915Z,67.40
2019-05-01T16:15:51.341Z,68.20
2019-05-01T16:18:19.762Z,68.70
2019-05-01T16:20:48.247Z,69.30
2019-05-01T16:23:16.674Z,69.30
2019-05-01T16:25:45.093Z,68.90
2019-05-01T16:28:13.512Z,68.70
2019-05-01T16:30:41.922Z,68.60
2019-05-01T16:33:10.324Z,68.30
2019-05-01T16:38:07.991Z,68.20
2019-05-01T16:40:38.031Z,68.80
2019-05-01T16:43:08.144Z,68.60
2019-05-01T16:45:36.582Z,69.00
2019-05-01T16:48:05.270Z,68.60
2019-05-01T16:50:34.075Z,68.70
2019-05-01T16:53:02.600Z,68.70
2019-05-01T16:55:31.011Z,68.90
2019-05-01T16:57:59.658Z,69.00
2019-05-01T17:00:32.433Z,69.30
2019-05-01T17:03:02.497Z,69.90
2019-05-01T17:05:32.538Z,70.40
2019-05-01T17:08:02.608Z,70.30
2019-05-01T17:10:32.662Z,69.60
2019-05-01T17:13:01.518Z,70.20
2019-05-01T17:15:31.666Z,70.60
2019-05-01T17:18:00.090Z,70.60
2019-05-01T17:20:28.570Z,70.70
2019-05-01T17:22:57.034Z,70.50
2019-05-01T17:25:25.522Z,70.60
2019-05-01T17:27:53.964Z,70.80
2019-05-01T17:30:27.162Z,71.10
2019-05-01T17:32:55.551Z,70.80
2019-05-01T17:35:24.127Z,70.80
2019-05-01T17:37:52.558Z,71.70
2019-05-01T17:40:20.978Z,71.60
2019-05-01T17:42:49.420Z,72.40
2019-05-01T17:45:17.909Z,73.40
2019-05-01T17:47:46.322Z,73.50
2019-05-01T17:50:16.475Z,74.30
2019-05-01T17:52:44.922Z,74.90
2019-05-01T17:55:13.499Z,75.10
2019-05-01T17:57:41.912Z,74.30
2019-05-01T18:00:12.312Z,74.20
2019-05-01T18:02:42.378Z,75.10
2019-05-01T18:05:12.550Z,75.90
2019-05-01T18:07:41.059Z,75.60
2019-05-01T18:10:12.554Z,75.50
2019-05-01T18:12:40.993Z,75.40
2019-05-01T18:15:09.450Z,75.50
2019-05-01T18:17:37.929Z,75.80
2019-05-01T18:20:07.098Z,75.90
2019-05-01T18:22:38.875Z,76.30
2019-05-01T18:25:09.531Z,76.30
2019-05-01T18:27:39.607Z,76.80
2019-05-01T18:30:09.843Z,77.10
2019-05-01T18:32:41.533Z,77.20
2019-05-01T18:35:14.323Z,76.90
2019-05-01T18:37:42.299Z,77.00
2019-05-01T18:40:12.702Z,77.40
2019-05-01T18:42:41.194Z,77.80
2019-05-01T18:45:14.346Z,77.70
2019-05-01T18:47:42.778Z,77.50
2019-05-01T18:50:13.535Z,77.80
2019-05-01T18:52:41.366Z,78.00
2019-05-01T18:55:09.867Z,78.10
2019-05-01T18:57:38.322Z,78.30
2019-05-01T19:00:06.935Z,78.40
2019-05-01T19:02:35.523Z,79.00
2019-05-01T19:05:08.816Z,78.90
2019-05-01T19:07:39.728Z,78.80
2019-05-01T19:10:08.398Z,79.10
2019-05-01T19:12:36.804Z,79.40
2019-05-01T19:15:06.904Z,79.20
2019-05-01T19:17:35.310Z,79.90
2019-05-01T19:20:06.653Z,80.10
2019-05-01T19:22:35.168Z,80.20
2019-05-01T19:25:04.128Z,79.90
2019-05-01T19:27:32.530Z,80.40
2019-05-01T19:30:00.959Z,80.50
2019-05-01T19:32:30.618Z,80.60
2019-05-01T19:34:59.061Z,80.50
2019-05-01T19:37:30.758Z,81.20
2019-05-01T19:39:57.718Z,81.00
2019-05-01T19:42:26.209Z,81.00
2019-05-01T19:44:56.369Z,81.10
2019-05-01T19:47:24.983Z,81.20
2019-05-01T19:49:54.664Z,81.60
2019-05-01T19:52:23.360Z,81.70
2019-05-01T19:54:51.832Z,81.50
2019-05-01T19:57:24.831Z,81.40
2019-05-01T19:59:53.344Z,81.50
2019-05-01T20:02:23.739Z,81.50
2019-05-01T20:04:52.404Z,81.80
2019-05-01T20:07:21.653Z,81.80
2019-05-01T20:09:56.636Z,81.60
2019-05-01T20:12:20.495Z,81.90
2019-05-01T20:14:48.924Z,82.00
2019-05-01T20:17:17.500Z,82.10
2019-05-01T20:19:45.914Z,82.90
2019-05-01T20:22:14.331Z,83.00
2019-05-01T20:24:44.182Z,83.50
2019-05-01T20:27:18.658Z,83.60
2019-05-01T20:29:47.070Z,83.60
2019-05-01T20:32:15.557Z,84.20
2019-05-01T20:34:48.002Z,84.60
2019-05-01T20:37:14.119Z,84.80
2019-05-01T20:39:42.543Z,85.20
2019-05-01T20:42:10.966Z,85.00
2019-05-01T20:44:39.487Z,84.90
2019-05-01T20:47:33.743Z,84.60
2019-05-01T20:49:46.454Z,85.20
2019-05-01T20:52:14.867Z,86.00
2019-05-01T20:54:43.519Z,85.80
2019-05-01T20:57:19.170Z,86.10
2019-05-01T20:59:43.710Z,86.20
2019-05-01T21:02:12.144Z,86.20
2019-05-01T21:04:42.213Z,86.10
2019-05-01T21:07:21.472Z,86.30
2019-05-01T21:09:57.290Z,86.00
2019-05-01T21:12:21.675Z,86.50
2019-05-01T21:14:51.087Z,86.50
2019-05-01T21:17:19.603Z,86.60
2019-05-01T21:19:48.042Z,87.40
2019-05-01T21:22:16.554Z,87.70
2019-05-01T21:24:44.947Z,87.80
2019-05-01T21:27:13.490Z,88.40
2019-05-01T21:29:41.932Z,88.40
2019-05-01T21:32:10.356Z,88.70
2019-05-01T21:34:38.766Z,88.90
2019-05-01T21:37:07.241Z,88.50
2019-05-01T21:39:35.712Z,88.50
2019-05-01T21:42:11.333Z,88.90
2019-05-01T21:44:34.582Z,88.90
2019-05-01T21:47:03.993Z,88.80
2019-05-01T21:49:33.309Z,88.80
2019-05-01T21:52:03.584Z,88.70
2019-05-01T21:54:32.116Z,88.60
2019-05-01T21:57:00.536Z,88.40
2019-05-01T21:59:28.978Z,88.20
2019-05-01T22:01:57.474Z,88.90
2019-05-01T22:04:27.808Z,88.30
2019-05-01T22:06:56.039Z,88.30
2019-05-01T22:09:25.866Z,88.50
2019-05-01T22:11:54.298Z,88.60
2019-05-01T22:14:24.348Z,88.10
2019-05-01T22:16:56.594Z,88.10
2019-05-01T22:19:25.094Z,87.90
2019-05-01T22:21:55.150Z,88.00
2019-05-01T22:24:25.205Z,89.00
2019-05-01T22:26:55.286Z,89.30
2019-05-01T22:29:27.181Z,88.70
2019-05-01T22:31:59.111Z,89.20
2019-05-01T22:34:29.218Z,89.20
2019-05-01T22:36:57.615Z,89.10
2019-05-01T22:39:28.921Z,88.70
2019-05-01T22:41:57.471Z,88.40
2019-05-01T22:44:25.880Z,88.30
2019-05-01T22:46:54.296Z,88.20
2019-05-01T22:49:22.702Z,88.30
2019-05-01T22:51:51.129Z,88.50
2019-05-01T22:54:19.546Z,88.40
2019-05-01T22:56:47.951Z,88.50
2019-05-01T22:59:16.354Z,88.70
2019-05-01T23:01:49.203Z,88.50
2019-05-01T23:04:17.250Z,88.40
2019-05-01T23:06:46.668Z,88.40
2019-05-01T23:09:16.794Z,88.50
2019-05-01T23:11:46.853Z,88.30
2019-05-01T23:14:15.831Z,88.60
2019-05-01T23:16:45.958Z,88.60
2019-05-01T23:19:14.430Z,88.60
2019-05-01T23:21:45.818Z,88.40
2019-05-01T23:24:13.013Z,88.80
2019-05-01T23:26:41.447Z,88.60
2019-05-01T23:29:10.055Z,88.60
2019-05-01T23:31:38.466Z,88.70
2019-05-01T23:34:06.879Z,88.80
2019-05-01T23:36:35.374Z,88.80
2019-05-01T23:39:05.285Z,88.80
2019-05-01T23:41:45.205Z,88.90
2019-05-01T23:44:05.422Z,89.20
2019-05-01T23:46:33.983Z,89.30
2019-05-01T23:49:02.394Z,89.40
2019-05-01T23:51:30.876Z,89.90
2019-05-01T23:53:59.293Z,89.70
2019-05-01T23:56:31.175Z,89.60
2019-05-01T23:58:57.892Z,89.50
